Aeroporto :
LOGIN :

Iscrizione | Disclaimer

   EN    FR    IT 

 










Sommario :    VFR   VFR Marginale   IFR   IFR Intensivo   IFR Molto Intensivo
Visibilità : 
Base nubi : 
>= 8 km
>= 3000ft
5 / 8 km
1000 / 3000 ft
1500m / 5 km
500 / 1000 ft
800 / 1500m
200 / 500 ft
< 800m
< 200 ft
Simboli :   Temporali  Nebbia  Neve Forte  Precipitazioni Forti  Vento > 20 kt
SIGMETs :   Varie  Temporali  Ghiacco  Turbolenza  Onda orograficha  Ceneri Vulcaniche






- Altitudine del aeroporto : 505 ft
- Codice IATA : SXB


LFST - Strasbourg

ULTIMO METAR :
  • 011100Z AUTO VRB04KT CAVOK 09/M03 Q1020 NOSIG

METARs OBSOLETI :
  • 011030Z AUTO 03006KT 320V070 CAVOK 09/M05 Q1020 NOSIG
  • 011000Z AUTO 04005KT 010V090 CAVOK 08/M04 Q1021 NOSIG
  • 010930Z AUTO 05007KT 020V090 CAVOK 07/M04 Q1021 NOSIG
  • 010900Z AUTO 05005KT 320V100 CAVOK 06/M03 Q1022 NOSIG
  • 010830Z AUTO 04005KT 330V100 CAVOK 05/M04 Q1022 NOSIG

TAF TAF LFST
Valido dal 01 a 06 ore il 02 a 06 ore UTC


010500Z 0106/0206 36005KT CAVOK



MetMap, La meteo Aeronautica in un colpo d'occhio ! - Copyright ORBIFLY Dicembre 2007 - Disclaimer

ORBIFLY MET'MAP TEAM :

Programmazione e sviluppo : Alexandra Zaïnal
Concezione : Baudouin d'Aumeries
Aiuto per la programmazione : Marc-Olivier Méhu
Supporto tecnico e logistico : Manuel Goepfert
Aiuto per la traduzione : Arnaldo La Scala

Contatto : metmap@orbifly.com




FONTI E CREDITI :

   NOAA